Time;durP1;ratioP1;P1;durP2;ratioP2;P2;SDS_P1;SDS_P2;PMS_P1;PMS_P2;Temp;Humidity;BMP_temperature;BMP_pressure;BME280_temperature;BME280_humidity;BME280_pressure;Samples;Min_cycle;Max_cycle;Signal;HPM_P1;HPM_P2
2024/01/23 00:01:35;;;;;;;;;;;;;;;;;;5089183;28;20360;-71
2024/01/23 00:04:00;;;;;;;;;;;;;;;;;;5071256;28;19927;-71
2024/01/23 00:06:26;;;;;;;;;;;;;;;;;;5074213;28;19920;-72
2024/01/23 00:08:52;;;;;;;;;;;;;;;;;;5082673;28;19974;-71
2024/01/23 00:11:17;;;;;;;;;;;;;;;;;;5073342;28;19963;-71
2024/01/23 00:13:45;;;;;;;;;;;;;;;;;;5064421;28;19960;-71
2024/01/23 00:16:10;;;;;;;;;;;;;;;;;;5080748;28;20013;-73
2024/01/23 00:18:35;;;;;;;;;;;;;;;;;;5075536;28;20331;-71
2024/01/23 00:21:00;;;;;;;;;;;;;;;;;;5071427;28;19943;-71
2024/01/23 00:23:25;;;;;;;;;;;;;;;;;;5076212;28;19927;-71
2024/01/23 00:25:52;;;;;;;;;;;;;;;;;;5051561;28;19970;-71
2024/01/23 00:28:18;;;;;;;;;;;;;;;;;;5072269;28;19947;-71
2024/01/23 00:30:43;;;;;;;;;;;;;;;;;;5083075;28;19966;-71
2024/01/23 00:33:08;;;;;;;;;;;;;;;;;;5069890;28;19916;-71
2024/01/23 00:35:33;;;;;;;;;;;;;;;;;;5069792;28;19924;-71
2024/01/23 00:37:58;;;;;;;;;;;;;;;;;;5078827;28;19947;-71
2024/01/23 00:40:23;;;;;;;;;;;;;;;;;;5076150;28;19933;-72
2024/01/23 00:42:48;;;;;;;;;;;;;;;;;;5069563;28;19944;-71
2024/01/23 00:45:13;;;;;;;;;;;;;;;;;;5069209;28;20308;-71
2024/01/23 00:47:38;;;;;;;;;;;;;;;;;;5084542;28;19920;-71
2024/01/23 00:50:04;;;;;;;;;;;;;;;;;;5087296;28;19920;-72
2024/01/23 00:52:29;;;;;;;;;;;;;;;;;;5069662;28;19939;-72
2024/01/23 00:54:58;;;;;;;;;;;;;;;;;;5086484;28;19972;-72
2024/01/23 00:57:23;;;;;;;;;;;;;;;;;;5085175;28;19951;-72
2024/01/23 00:59:48;;;;;;;;;;;;;;;;;;5070308;28;19948;-72
2024/01/23 01:02:14;;;;;;;;;;;;;;;;;;5077468;28;20003;-72
2024/01/23 01:04:41;;;;;;;;;;;;;;;;;;5077865;28;19916;-72
2024/01/23 01:07:06;;;;;;;;;;;;;;;;;;5069571;28;20332;-72
2024/01/23 01:09:31;;;;;;;;;;;;;;;;;;5069519;28;19916;-72
2024/01/23 01:11:56;;;;;;;;;;;;;;;;;;5077555;28;19944;-73
2024/01/23 01:14:21;;;;;;;;;;;;;;;;;;5072527;28;20012;-72
2024/01/23 01:16:46;;;;;;;;;;;;;;;;;;5078802;28;19970;-72
2024/01/23 01:19:11;;;;;;;;;;;;;;;;;;5082555;28;19947;-73
2024/01/23 01:21:37;;;;;;;;;;;;;;;;;;5059942;28;20024;-73
2024/01/23 01:24:02;;;;;;;;;;;;;;;;;;5082981;28;19920;-72
2024/01/23 01:26:27;;;;;;;;;;;;;;;;;;5071938;28;19928;-73
2024/01/23 01:28:52;;;;;;;;;;;;;;;;;;5069038;28;19916;-72
2024/01/23 01:31:17;;;;;;;;;;;;;;;;;;5077109;28;19940;-73
2024/01/23 01:33:42;;;;;;;;;;;;;;;;;;5075502;28;20488;-72
2024/01/23 01:36:07;;;;;;;;;;;;;;;;;;5068106;28;19965;-72
2024/01/23 01:38:32;;;;;;;;;;;;;;;;;;5084017;28;19916;-73
2024/01/23 01:40:58;;;;;;;;;;;;;;;;;;5092501;28;19923;-73
2024/01/23 01:43:25;;;;;;;;;;;;;;;;;;5076018;28;19995;-72
2024/01/23 01:45:50;;;;;;;;;;;;;;;;;;5083855;28;20375;-72
2024/01/23 01:48:15;;;;;;;;;;;;;;;;;;5075458;28;19939;-72
2024/01/23 01:50:40;;;;;;;;;;;;;;;;;;5075163;28;19923;-72
2024/01/23 01:53:05;;;;;;;;;;;;;;;;;;5084634;28;19917;-72
2024/01/23 01:55:30;;;;;;;;;;;;;;;;;;5082685;28;19967;-72
2024/01/23 01:57:55;;;;;;;;;;;;;;;;;;5091858;28;19916;-73
2024/01/23 02:00:20;;;;;;;;;;;;;;;;;;5091542;28;19920;-73
2024/01/23 02:02:47;;;;;;;;;;;;;;;;;;5084641;28;19959;-71
2024/01/23 02:05:12;;;;;;;;;;;;;;;;;;5083540;28;20399;-71
2024/01/23 02:07:38;;;;;;;;;;;;;;;;;;5075306;28;20377;-71
2024/01/23 02:10:04;;;;;;;;;;;;;;;;;;5083322;28;19921;-71
2024/01/23 02:12:29;;;;;;;;;;;;;;;;;;5082982;28;19924;-71
2024/01/23 02:14:54;;;;;;;;;;;;;;;;;;5076308;28;19978;-71
2024/01/23 02:17:19;;;;;;;;;;;;;;;;;;5085954;28;19916;-71
2024/01/23 02:19:44;;;;;;;;;;;;;;;;;;5072784;28;19924;-71
2024/01/23 02:22:09;;;;;;;;;;;;;;;;;;5090582;28;19948;-72
2024/01/23 02:24:34;;;;;;;;;;;;;;;;;;5083841;28;19916;-71
2024/01/23 02:26:59;;;;;;;;;;;;;;;;;;5091693;28;19916;-71
2024/01/23 02:29:24;;;;;;;;;;;;;;;;;;5086119;28;19981;-71
2024/01/23 02:31:50;;;;;;;;;;;;;;;;;;5081106;28;20355;-71
2024/01/23 02:34:15;;;;;;;;;;;;;;;;;;5087219;28;19920;-71
2024/01/23 02:36:41;;;;;;;;;;;;;;;;;;5088250;28;19924;-72
2024/01/23 02:39:06;;;;;;;;;;;;;;;;;;5091964;28;19983;-71
2024/01/23 02:41:31;;;;;;;;;;;;;;;;;;5068461;28;20400;-71
2024/01/23 02:43:56;;;;;;;;;;;;;;;;;;5091757;28;19973;-71
2024/01/23 02:46:21;;;;;;;;;;;;;;;;;;5094160;28;20384;-71
2024/01/23 02:48:46;;;;;;;;;;;;;;;;;;5094779;28;19917;-71
2024/01/23 02:51:11;;;;;;;;;;;;;;;;;;5071469;28;19923;-71
2024/01/23 02:53:36;;;;;;;;;;;;;;;;;;5083761;28;19981;-71
2024/01/23 02:56:02;;;;;;;;;;;;;;;;;;5091867;28;19956;-71
2024/01/23 02:58:27;;;;;;;;;;;;;;;;;;5079243;28;19974;-71
2024/01/23 03:00:52;;;;;;;;;;;;;;;;;;5081048;28;19919;-71
2024/01/23 03:03:17;;;;;;;;;;;;;;;;;;5054993;28;19917;-71
2024/01/23 03:05:42;;;;;;;;;;;;;;;;;;5084469;28;20137;-71
2024/01/23 03:08:07;;;;;;;;;;;;;;;;;;5081916;28;20411;-71
2024/01/23 03:10:32;;;;;;;;;;;;;;;;;;5071107;28;19916;-71
2024/01/23 03:12:58;;;;;;;;;;;;;;;;;;5071526;28;20032;-71
2024/01/23 03:15:23;;;;;;;;;;;;;;;;;;5072223;28;20579;-71
2024/01/23 03:17:48;;;;;;;;;;;;;;;;;;5071188;28;19920;-71
2024/01/23 03:20:13;;;;;;;;;;;;;;;;;;5067838;28;19932;-71
2024/01/23 03:22:38;;;;;;;;;;;;;;;;;;5051496;28;19920;-71
2024/01/23 03:25:03;;;;;;;;;;;;;;;;;;5070963;28;19970;-71
2024/01/23 03:27:28;;;;;;;;;;;;;;;;;;5070238;28;19925;-71
2024/01/23 03:29:53;;;;;;;;;;;;;;;;;;5077042;28;19928;-70
2024/01/23 03:32:18;;;;;;;;;;;;;;;;;;5074962;28;19924;-71
2024/01/23 03:34:43;;;;;;;;;;;;;;;;;;5074262;28;19924;-71
2024/01/23 03:37:08;;;;;;;;;;;;;;;;;;5082675;28;20397;-71
2024/01/23 03:39:34;;;;;;;;;;;;;;;;;;5074638;28;19920;-71
2024/01/23 03:42:00;;;;;;;;;;;;;;;;;;5083898;28;19917;-70
2024/01/23 03:44:25;;;;;;;;;;;;;;;;;;5073875;28;19935;-70
2024/01/23 03:46:50;;;;;;;;;;;;;;;;;;5078943;28;19928;-71
2024/01/23 03:49:15;;;;;;;;;;;;;;;;;;5071229;28;19928;-71
2024/01/23 03:51:40;;;;;;;;;;;;;;;;;;5078171;28;19916;-70
2024/01/23 03:54:05;;;;;;;;;;;;;;;;;;5081398;28;19924;-72
2024/01/23 03:56:30;;;;;;;;;;;;;;;;;;5072758;28;20039;-71
2024/01/23 03:58:55;;;;;;;;;;;;;;;;;;5082960;28;19956;-71
2024/01/23 04:01:20;;;;;;;;;;;;;;;;;;5080684;28;20018;-71
2024/01/23 04:03:45;;;;;;;;;;;;;;;;;;5078690;28;19978;-71
2024/01/23 04:06:11;;;;;;;;;;;;;;;;;;5085040;28;19973;-71
2024/01/23 04:08:36;;;;;;;;;;;;;;;;;;5074585;28;20408;-71
2024/01/23 04:11:01;;;;;;;;;;;;;;;;;;5069641;28;19960;-71
2024/01/23 04:13:26;;;;;;;;;;;;;;;;;;5077421;28;20385;-71
2024/01/23 04:15:51;;;;;;;;;;;;;;;;;;5076343;28;19968;-71
2024/01/23 04:18:16;;;;;;;;;;;;;;;;;;5068843;28;19924;-71
2024/01/23 04:20:41;;;;;;;;;;;;;;;;;;5070780;28;19925;-71
2024/01/23 04:23:06;;;;;;;;;;;;;;;;;;5085622;28;19973;-71
2024/01/23 04:25:31;;;;;;;;;;;;;;;;;;5077149;28;19920;-71
2024/01/23 04:27:57;;;;;;;;;;;;;;;;;;5069853;28;20125;-71
2024/01/23 04:30:22;;;;;;;;;;;;;;;;;;5077277;28;20316;-71
2024/01/23 04:32:47;;;;;;;;;;;;;;;;;;5072193;28;19924;-71
2024/01/23 04:35:12;;;;;;;;;;;;;;;;;;5069248;28;19925;-71
2024/01/23 04:37:37;;;;;;;;;;;;;;;;;;5074385;28;20013;-71
2024/01/23 04:40:06;;;;;;;;;;;;;;;;;;5079901;28;19927;-71
2024/01/23 04:42:32;;;;;;;;;;;;;;;;;;5072805;28;19998;-71
2024/01/23 04:44:58;;;;;;;;;;;;;;;;;;5072402;28;20474;-71
2024/01/23 04:47:23;;;;;;;;;;;;;;;;;;5078070;28;19920;-70
2024/01/23 04:49:48;;;;;;;;;;;;;;;;;;5082324;28;19920;-71
2024/01/23 04:52:13;;;;;;;;;;;;;;;;;;5089198;28;19920;-71
2024/01/23 04:54:41;;;;;;;;;;;;;;;;;;5086108;28;20282;-71
2024/01/23 04:57:06;;;;;;;;;;;;;;;;;;5072998;28;19920;-71
2024/01/23 04:59:31;;;;;;;;;;;;;;;;;;5068898;28;19921;-71
2024/01/23 05:01:56;;;;;;;;;;;;;;;;;;5085801;28;19916;-71
2024/01/23 05:04:21;;;;;;;;;;;;;;;;;;5071878;28;19957;-71
2024/01/23 05:06:46;;;;;;;;;;;;;;;;;;5055739;28;20102;-71
2024/01/23 05:09:12;;;;;;;;;;;;;;;;;;5063062;28;20373;-71
2024/01/23 05:11:37;;;;;;;;;;;;;;;;;;5069517;28;19920;-71
2024/01/23 05:14:03;;;;;;;;;;;;;;;;;;5071247;28;19925;-71
2024/01/23 05:16:28;;;;;;;;;;;;;;;;;;5069008;28;20408;-71
2024/01/23 05:18:53;;;;;;;;;;;;;;;;;;5077510;28;19927;-71
2024/01/23 05:21:19;;;;;;;;;;;;;;;;;;5069260;28;19931;-71
2024/01/23 05:23:44;;;;;;;;;;;;;;;;;;5061227;28;20445;-71
2024/01/23 05:26:09;;;;;;;;;;;;;;;;;;5068348;28;19924;-71
2024/01/23 05:28:34;;;;;;;;;;;;;;;;;;5068448;28;19947;-72
2024/01/23 05:30:59;;;;;;;;;;;;;;;;;;5082488;28;19922;-71
2024/01/23 05:33:24;;;;;;;;;;;;;;;;;;5054772;28;19916;-71
2024/01/23 05:35:50;;;;;;;;;;;;;;;;;;5089404;28;19927;-71
2024/01/23 05:38:15;;;;;;;;;;;;;;;;;;5081106;28;20009;-71
2024/01/23 05:40:40;;;;;;;;;;;;;;;;;;5071767;28;20273;-71
2024/01/23 05:43:05;;;;;;;;;;;;;;;;;;5080774;28;19969;-71
2024/01/23 05:45:30;;;;;;;;;;;;;;;;;;5079285;28;19947;-71
2024/01/23 05:47:55;;;;;;;;;;;;;;;;;;5079130;28;19916;-71
2024/01/23 05:50:20;;;;;;;;;;;;;;;;;;5081378;28;20336;-71
2024/01/23 05:52:46;;;;;;;;;;;;;;;;;;5088806;28;20016;-71
2024/01/23 05:55:11;;;;;;;;;;;;;;;;;;5073720;28;20392;-71
2024/01/23 05:57:36;;;;;;;;;;;;;;;;;;5068744;28;19969;-71
2024/01/23 06:00:05;;;;;;;;;;;;;;;;;;5075251;28;19981;-71
2024/01/23 06:02:30;;;;;;;;;;;;;;;;;;5078992;28;19920;-71
2024/01/23 06:04:55;;;;;;;;;;;;;;;;;;5069196;28;19970;-71
2024/01/23 06:07:20;;;;;;;;;;;;;;;;;;5068413;28;19981;-71
2024/01/23 06:09:46;;;;;;;;;;;;;;;;;;5064123;28;19962;-71
2024/01/23 06:12:11;;;;;;;;;;;;;;;;;;5055204;28;19916;-71
2024/01/23 06:14:36;;;;;;;;;;;;;;;;;;5078542;28;20289;-71
2024/01/23 06:17:01;;;;;;;;;;;;;;;;;;5080882;28;19923;-71
2024/01/23 06:19:26;;;;;;;;;;;;;;;;;;5071761;28;19916;-71
2024/01/23 06:21:51;;;;;;;;;;;;;;;;;;5076725;28;19931;-71
2024/01/23 06:24:16;;;;;;;;;;;;;;;;;;5083737;28;19984;-72
2024/01/23 06:26:41;;;;;;;;;;;;;;;;;;5092004;28;19923;-71
2024/01/23 06:29:06;;;;;;;;;;;;;;;;;;5078046;28;19920;-71
2024/01/23 06:31:31;;;;;;;;;;;;;;;;;;5080326;28;19923;-71
2024/01/23 06:33:57;;;;;;;;;;;;;;;;;;5072063;28;19935;-71
2024/01/23 06:36:22;;;;;;;;;;;;;;;;;;5053363;28;20011;-71
2024/01/23 06:38:47;;;;;;;;;;;;;;;;;;5078261;28;19916;-71
2024/01/23 06:41:12;;;;;;;;;;;;;;;;;;5080325;28;19974;-71
2024/01/23 06:43:37;;;;;;;;;;;;;;;;;;5080020;28;19981;-72
2024/01/23 06:46:02;;;;;;;;;;;;;;;;;;5080036;28;19946;-72
2024/01/23 06:48:27;;;;;;;;;;;;;;;;;;5072397;28;19927;-72
2024/01/23 06:50:52;;;;;;;;;;;;;;;;;;5075829;28;20298;-72
2024/01/23 06:53:17;;;;;;;;;;;;;;;;;;5077315;28;20303;-72
2024/01/23 06:55:43;;;;;;;;;;;;;;;;;;5073223;28;20547;-72
2024/01/23 06:58:08;;;;;;;;;;;;;;;;;;5084060;28;19998;-72
2024/01/23 07:00:33;;;;;;;;;;;;;;;;;;5065812;28;19928;-72
2024/01/23 07:02:58;;;;;;;;;;;;;;;;;;5066991;28;20373;-72
2024/01/23 07:05:23;;;;;;;;;;;;;;;;;;5080279;28;19924;-71
2024/01/23 07:07:48;;;;;;;;;;;;;;;;;;5072220;28;19920;-72
2024/01/23 07:10:13;;;;;;;;;;;;;;;;;;5072913;28;19928;-72
2024/01/23 07:12:39;;;;;;;;;;;;;;;;;;5071251;28;19921;-72
2024/01/23 07:15:04;;;;;;;;;;;;;;;;;;5079571;28;19920;-71
2024/01/23 07:17:29;;;;;;;;;;;;;;;;;;5091833;28;20301;-72
2024/01/23 07:19:54;;;;;;;;;;;;;;;;;;5071946;28;20385;-71
2024/01/23 07:22:19;;;;;;;;;;;;;;;;;;5077085;28;19920;-71
2024/01/23 07:24:44;;;;;;;;;;;;;;;;;;5054191;28;19920;-72
2024/01/23 07:27:11;;;;;;;;;;;;;;;;;;5051952;28;20210;-72
2024/01/23 07:29:38;;;;;;;;;;;;;;;;;;5067640;28;20369;-71
2024/01/23 07:32:03;;;;;;;;;;;;;;;;;;5054671;28;20382;-72
2024/01/23 07:34:28;;;;;;;;;;;;;;;;;;5072324;28;19982;-69
2024/01/23 07:36:53;;;;;;;;;;;;;;;;;;5076346;28;19977;-69
2024/01/23 07:39:18;;;;;;;;;;;;;;;;;;5072576;28;20038;-69
2024/01/23 07:41:44;;;;;;;;;;;;;;;;;;5069700;28;19917;-68
2024/01/23 07:44:09;;;;;;;;;;;;;;;;;;5070985;28;19916;-69
2024/01/23 07:46:34;;;;;;;;;;;;;;;;;;5076930;28;19920;-68
2024/01/23 07:48:59;;;;;;;;;;;;;;;;;;5052217;28;19939;-69
2024/01/23 07:51:24;;;;;;;;;;;;;;;;;;5072198;28;19920;-68
2024/01/23 07:53:50;;;;;;;;;;;;;;;;;;5071900;28;19924;-68
2024/01/23 07:56:15;;;;;;;;;;;;;;;;;;5074621;28;19928;-67
2024/01/23 07:58:40;;;;;;;;;;;;;;;;;;5052227;28;19931;-67
2024/01/23 08:01:06;;;;;;;;;;;;;;;;;;5076320;28;19928;-67
2024/01/23 08:03:31;;;;;;;;;;;;;;;;;;5054039;28;20322;-67
2024/01/23 08:05:57;;;;;;;;;;;;;;;;;;5090689;28;20019;-67
2024/01/23 08:08:23;;;;;;;;;;;;;;;;;;5076998;28;19924;-67
2024/01/23 08:10:49;;;;;;;;;;;;;;;;;;5073537;28;20333;-67
2024/01/23 08:13:15;;;;;;;;;;;;;;;;;;5067419;28;19924;-66
2024/01/23 08:15:40;;;;;;;;;;;;;;;;;;5070790;28;19928;-66
2024/01/23 08:18:06;;;;;;;;;;;;;;;;;;5074518;28;19916;-67
2024/01/23 08:20:31;;;;;;;;;;;;;;;;;;5078979;28;20013;-67
2024/01/23 08:22:56;;;;;;;;;;;;;;;;;;5074885;28;19960;-66
2024/01/23 08:25:21;;;;;;;;;;;;;;;;;;5071448;28;20376;-66
2024/01/23 08:27:46;;;;;;;;;;;;;;;;;;5071242;28;19924;-68
2024/01/23 08:30:11;;;;;;;;;;;;;;;;;;5077543;28;19957;-67
2024/01/23 08:32:37;;;;;;;;;;;;;;;;;;5069193;28;19928;-67
2024/01/23 08:35:02;;;;;;;;;;;;;;;;;;5071296;28;20332;-66
2024/01/23 08:37:27;;;;;;;;;;;;;;;;;;5088120;28;19959;-66
2024/01/23 08:39:53;;;;;;;;;;;;;;;;;;5074623;28;20011;-66
2024/01/23 08:42:18;;;;;;;;;;;;;;;;;;5073511;28;19940;-67
2024/01/23 08:44:46;;;;;;;;;;;;;;;;;;5069200;28;19928;-67
2024/01/23 08:47:11;;;;;;;;;;;;;;;;;;5070585;28;20093;-66
2024/01/23 08:49:36;;;;;;;;;;;;;;;;;;5070300;28;19969;-66
2024/01/23 08:52:02;;;;;;;;;;;;;;;;;;5074273;28;19972;-66
2024/01/23 08:54:27;;;;;;;;;;;;;;;;;;5068140;28;19925;-67
2024/01/23 08:56:55;;;;;;;;;;;;;;;;;;5070918;28;19964;-67
2024/01/23 08:59:21;;;;;;;;;;;;;;;;;;5069752;28;20014;-66
2024/01/23 09:01:46;;;;;;;;;;;;;;;;;;5070945;28;20008;-66
2024/01/23 09:04:11;;;;;;;;;;;;;;;;;;5066458;28;19921;-67
2024/01/23 09:06:36;;;;;;;;;;;;;;;;;;5075507;28;19949;-67
2024/01/23 09:09:01;;;;;;;;;;;;;;;;;;5068887;28;19928;-66
2024/01/23 09:11:26;;;;;;;;;;;;;;;;;;5074718;28;19921;-66
2024/01/23 09:13:51;;;;;;;;;;;;;;;;;;5072671;28;19927;-66
2024/01/23 09:16:16;;;;;;;;;;;;;;;;;;5075682;28;20296;-67
2024/01/23 09:18:44;;;;;;;;;;;;;;;;;;5073575;28;20074;-66
2024/01/23 09:21:09;;;;;;;;;;;;;;;;;;5068723;28;19920;-66
2024/01/23 09:23:34;;;;;;;;;;;;;;;;;;5068827;28;19935;-66
2024/01/23 09:25:59;;;;;;;;;;;;;;;;;;5073440;28;19928;-66
2024/01/23 09:28:24;;;;;;;;;;;;;;;;;;5064726;28;20339;-67
2024/01/23 09:30:50;;;;;;;;;;;;;;;;;;5069741;28;19931;-66
2024/01/23 09:33:15;;;;;;;;;;;;;;;;;;5065025;28;19954;-66
2024/01/23 09:35:40;;;;;;;;;;;;;;;;;;5068261;28;19924;-67
2024/01/23 09:38:05;;;;;;;;;;;;;;;;;;5073072;28;19928;-67
2024/01/23 09:40:30;;;;;;;;;;;;;;;;;;5067718;28;20627;-67
2024/01/23 09:42:55;;;;;;;;;;;;;;;;;;5070352;28;19971;-67
2024/01/23 09:45:20;;;;;;;;;;;;;;;;;;5050444;28;19920;-67
2024/01/23 09:47:46;;;;;;;;;;;;;;;;;;5072746;28;20375;-67
2024/01/23 09:50:15;;;;;;;;;;;;;;;;;;5067274;28;19920;-67
2024/01/23 09:52:40;;;;;;;;;;;;;;;;;;5070516;28;19928;-67
2024/01/23 09:55:05;;;;;;;;;;;;;;;;;;5073679;28;19924;-67
2024/01/23 09:57:30;;;;;;;;;;;;;;;;;;5069650;28;19920;-67
2024/01/23 09:59:55;;;;;;;;;;;;;;;;;;5070950;28;19932;-67
2024/01/23 10:02:21;;;;;;;;;;;;;;;;;;5089543;28;19963;-67
2024/01/23 10:04:46;;;;;;;;;;;;;;;;;;5077044;28;19921;-67
2024/01/23 10:07:12;;;;;;;;;;;;;;;;;;5068945;28;19926;-67
2024/01/23 10:09:39;;;;;;;;;;;;;;;;;;5078133;28;19927;-67
2024/01/23 10:12:04;;;;;;;;;;;;;;;;;;5068406;28;20044;-67
2024/01/23 10:14:29;;;;;;;;;;;;;;;;;;5081663;28;20414;-67
2024/01/23 10:16:54;;;;;;;;;;;;;;;;;;5074266;28;19921;-67
2024/01/23 10:19:19;;;;;;;;;;;;;;;;;;5077532;28;20404;-67
2024/01/23 10:21:44;;;;;;;;;;;;;;;;;;5075870;28;20053;-67
2024/01/23 10:24:09;;;;;;;;;;;;;;;;;;5073583;28;19920;-67
2024/01/23 10:26:34;;;;;;;;;;;;;;;;;;5074528;28;19950;-67
2024/01/23 10:29:00;;;;;;;;;;;;;;;;;;5080413;28;19920;-67
2024/01/23 10:31:25;;;;;;;;;;;;;;;;;;5076369;28;19920;-67
2024/01/23 10:33:50;;;;;;;;;;;;;;;;;;5077578;28;19973;-67
2024/01/23 10:36:16;;;;;;;;;;;;;;;;;;5058923;28;19928;-67
2024/01/23 10:38:41;;;;;;;;;;;;;;;;;;5070646;28;20288;-67
2024/01/23 10:41:06;;;;;;;;;;;;;;;;;;5056882;28;20408;-67
2024/01/23 10:43:31;;;;;;;;;;;;;;;;;;5074755;28;19920;-67
2024/01/23 10:45:56;;;;;;;;;;;;;;;;;;5079079;28;20430;-67
2024/01/23 10:48:21;;;;;;;;;;;;;;;;;;5070292;28;19920;-67
2024/01/23 10:50:46;;;;;;;;;;;;;;;;;;5072906;28;19928;-67
2024/01/23 10:53:11;;;;;;;;;;;;;;;;;;5080846;28;19935;-67
2024/01/23 10:55:36;;;;;;;;;;;;;;;;;;5080348;28;19973;-66
2024/01/23 10:58:01;;;;;;;;;;;;;;;;;;5079834;28;19924;-68
2024/01/23 11:00:27;;;;;;;;;;;;;;;;;;5080172;28;19928;-67
2024/01/23 11:02:52;;;;;;;;;;;;;;;;;;5085410;28;20319;-66
2024/01/23 11:05:17;;;;;;;;;;;;;;;;;;5072696;28;19928;-66
2024/01/23 11:07:43;;;;;;;;;;;;;;;;;;5079497;28;19931;-67
2024/01/23 11:10:08;;;;;;;;;;;;;;;;;;5078751;28;19963;-67
2024/01/23 11:12:33;;;;;;;;;;;;;;;;;;5077028;28;20393;-67
2024/01/23 11:14:58;;;;;;;;;;;;;;;;;;5071684;28;19924;-67
2024/01/23 11:17:23;;;;;;;;;;;;;;;;;;5080414;28;20426;-67
2024/01/23 11:19:49;;;;;;;;;;;;;;;;;;5078402;28;20087;-66
2024/01/23 11:22:14;;;;;;;;;;;;;;;;;;5078185;28;20194;-67
2024/01/23 11:24:39;;;;;;;;;;;;;;;;;;5078007;28;20356;-67
2024/01/23 11:27:04;;;;;;;;;;;;;;;;;;5072852;28;19944;-66
2024/01/23 11:29:29;;;;;;;;;;;;;;;;;;5083587;28;19929;-66
2024/01/23 11:31:54;;;;;;;;;;;;;;;;;;5078059;28;19920;-66
2024/01/23 11:34:20;;;;;;;;;;;;;;;;;;5078260;28;19924;-66
2024/01/23 11:36:45;;;;;;;;;;;;;;;;;;5074627;28;19974;-66
2024/01/23 11:39:10;;;;;;;;;;;;;;;;;;5072523;28;20312;-66
2024/01/23 11:41:35;;;;;;;;;;;;;;;;;;5083406;28;19923;-66
2024/01/23 11:44:00;;;;;;;;;;;;;;;;;;5074127;28;19959;-65
2024/01/23 11:46:25;;;;;;;;;;;;;;;;;;5073694;28;19921;-67
2024/01/23 11:48:50;;;;;;;;;;;;;;;;;;5081087;28;19920;-66
2024/01/23 11:51:15;;;;;;;;;;;;;;;;;;5081706;28;19929;-66
2024/01/23 11:53:41;;;;;;;;;;;;;;;;;;5074553;28;20043;-66
2024/01/23 11:56:06;;;;;;;;;;;;;;;;;;5065727;28;19928;-67
2024/01/23 11:58:31;;;;;;;;;;;;;;;;;;5080172;28;19985;-66
2024/01/23 12:00:56;;;;;;;;;;;;;;;;;;5070837;28;19932;-66
2024/01/23 12:03:22;;;;;;;;;;;;;;;;;;5074278;28;19928;-66
2024/01/23 12:05:47;;;;;;;;;;;;;;;;;;5070304;28;20293;-66
2024/01/23 12:08:12;;;;;;;;;;;;;;;;;;5073427;28;19924;-68
2024/01/23 12:10:37;;;;;;;;;;;;;;;;;;5072518;28;20438;-68
2024/01/23 12:13:02;;;;;;;;;;;;;;;;;;5069511;28;19924;-68
2024/01/23 12:15:27;;;;;;;;;;;;;;;;;;5071070;28;19924;-67
2024/01/23 12:17:53;;;;;;;;;;;;;;;;;;5078310;28;19953;-68
2024/01/23 12:20:18;;;;;;;;;;;;;;;;;;5072315;28;19920;-68
2024/01/23 12:22:43;;;;;;;;;;;;;;;;;;5076345;28;19931;-68
2024/01/23 12:25:08;;;;;;;;;;;;;;;;;;5071193;28;19986;-68
2024/01/23 12:27:33;;;;;;;;;;;;;;;;;;5077132;28;20373;-68
2024/01/23 12:29:58;;;;;;;;;;;;;;;;;;5072097;28;19920;-67
2024/01/23 12:32:23;;;;;;;;;;;;;;;;;;5059506;28;19924;-68
2024/01/23 12:34:48;;;;;;;;;;;;;;;;;;5070501;28;19935;-68
2024/01/23 12:37:13;;;;;;;;;;;;;;;;;;5070169;28;20420;-68
2024/01/23 12:39:38;;;;;;;;;;;;;;;;;;5075883;28;19957;-68
2024/01/23 12:42:04;;;;;;;;;;;;;;;;;;5071367;28;19987;-68
2024/01/23 12:44:29;;;;;;;;;;;;;;;;;;5071008;28;19977;-68
2024/01/23 12:46:55;;;;;;;;;;;;;;;;;;5073186;28;20267;-68
2024/01/23 12:49:20;;;;;;;;;;;;;;;;;;5069260;28;20300;-68
2024/01/23 12:51:45;;;;;;;;;;;;;;;;;;5072163;28;19927;-68
2024/01/23 12:54:10;;;;;;;;;;;;;;;;;;5074825;28;19921;-68
2024/01/23 12:56:35;;;;;;;;;;;;;;;;;;5072646;28;20168;-67
2024/01/23 12:59:00;;;;;;;;;;;;;;;;;;5071752;28;20370;-68
2024/01/23 13:01:26;;;;;;;;;;;;;;;;;;5075934;28;20411;-69
2024/01/23 13:03:51;;;;;;;;;;;;;;;;;;5074939;28;19982;-68
2024/01/23 13:06:16;;;;;;;;;;;;;;;;;;5071278;28;19975;-69
2024/01/23 13:08:41;;;;;;;;;;;;;;;;;;5071615;28;19986;-68
2024/01/23 13:11:06;;;;;;;;;;;;;;;;;;5072854;28;19924;-68
2024/01/23 13:13:32;;;;;;;;;;;;;;;;;;5076349;28;19924;-68
2024/01/23 13:15:57;;;;;;;;;;;;;;;;;;5067466;28;20026;-68
2024/01/23 13:18:22;;;;;;;;;;;;;;;;;;5073897;28;20286;-68
2024/01/23 13:20:47;;;;;;;;;;;;;;;;;;5079831;28;20372;-68
2024/01/23 13:23:12;;;;;;;;;;;;;;;;;;5072102;28;19946;-68
2024/01/23 13:25:38;;;;;;;;;;;;;;;;;;5069987;28;19920;-68
2024/01/23 13:28:03;;;;;;;;;;;;;;;;;;5076636;28;19973;-68
2024/01/23 13:30:30;;;;;;;;;;;;;;;;;;5072680;28;19928;-68
2024/01/23 13:32:55;;;;;;;;;;;;;;;;;;5072386;28;19927;-68
2024/01/23 13:35:20;;;;;;;;;;;;;;;;;;5068022;28;19924;-68
2024/01/23 13:37:45;;;;;;;;;;;;;;;;;;5070895;28;19920;-68
2024/01/23 13:40:10;;;;;;;;;;;;;;;;;;5067966;28;20322;-68
2024/01/23 13:42:36;;;;;;;;;;;;;;;;;;5068523;28;20014;-68
2024/01/23 13:45:01;;;;;;;;;;;;;;;;;;5076823;28;19926;-68
2024/01/23 13:47:26;;;;;;;;;;;;;;;;;;5060794;28;19957;-68
2024/01/23 13:49:52;;;;;;;;;;;;;;;;;;5072998;28;20381;-68
2024/01/23 13:52:17;;;;;;;;;;;;;;;;;;5072146;28;19927;-68
2024/01/23 13:54:42;;;;;;;;;;;;;;;;;;5068281;28;19928;-68
2024/01/23 13:57:07;;;;;;;;;;;;;;;;;;5076323;28;19927;-68
2024/01/23 13:59:32;;;;;;;;;;;;;;;;;;5071653;28;20141;-68
2024/01/23 14:01:57;;;;;;;;;;;;;;;;;;5072423;28;19920;-68
2024/01/23 14:04:23;;;;;;;;;;;;;;;;;;5078641;28;19924;-68
2024/01/23 14:06:49;;;;;;;;;;;;;;;;;;5073473;28;19920;-68
2024/01/23 14:09:15;;;;;;;;;;;;;;;;;;5071059;28;19920;-68
2024/01/23 14:11:40;;;;;;;;;;;;;;;;;;5071263;28;19920;-68
2024/01/23 14:14:06;;;;;;;;;;;;;;;;;;5075204;28;19920;-68
2024/01/23 14:16:31;;;;;;;;;;;;;;;;;;5052143;28;19929;-68
2024/01/23 14:18:56;;;;;;;;;;;;;;;;;;5076944;28;19970;-68
2024/01/23 14:21:21;;;;;;;;;;;;;;;;;;5078906;28;20015;-67
2024/01/23 14:23:47;;;;;;;;;;;;;;;;;;5070127;28;20363;-68
2024/01/23 14:26:12;;;;;;;;;;;;;;;;;;5068748;28;19955;-69
2024/01/23 14:28:37;;;;;;;;;;;;;;;;;;5076760;28;19963;-69
2024/01/23 14:31:02;;;;;;;;;;;;;;;;;;5067955;28;20015;-69
2024/01/23 14:33:29;;;;;;;;;;;;;;;;;;5068888;28;19976;-69
2024/01/23 14:35:54;;;;;;;;;;;;;;;;;;5082748;28;19932;-69
2024/01/23 14:38:19;;;;;;;;;;;;;;;;;;5076282;28;20122;-69
2024/01/23 14:40:44;;;;;;;;;;;;;;;;;;5070486;28;19948;-69
2024/01/23 14:43:09;;;;;;;;;;;;;;;;;;5070437;28;20373;-69
2024/01/23 14:45:35;;;;;;;;;;;;;;;;;;5074281;28;20361;-69
2024/01/23 14:48:01;;;;;;;;;;;;;;;;;;5075100;28;19955;-69
2024/01/23 14:50:26;;;;;;;;;;;;;;;;;;5075980;28;19971;-68
2024/01/23 14:52:51;;;;;;;;;;;;;;;;;;5080041;28;20296;-69
2024/01/23 14:55:16;;;;;;;;;;;;;;;;;;5071712;28;19944;-69
2024/01/23 14:57:41;;;;;;;;;;;;;;;;;;5073467;28;19936;-69
2024/01/23 15:00:07;;;;;;;;;;;;;;;;;;5080669;28;19920;-70
2024/01/23 15:02:32;;;;;;;;;;;;;;;;;;5073815;28;19921;-69
2024/01/23 15:04:57;;;;;;;;;;;;;;;;;;5068315;28;19921;-69
2024/01/23 15:07:23;;;;;;;;;;;;;;;;;;5078736;28;19958;-69
2024/01/23 15:09:48;;;;;;;;;;;;;;;;;;5075126;28;19932;-69
2024/01/23 15:12:13;;;;;;;;;;;;;;;;;;5070804;28;19920;-69
2024/01/23 15:14:38;;;;;;;;;;;;;;;;;;5072186;28;19925;-69
2024/01/23 15:17:06;;;;;;;;;;;;;;;;;;5074890;28;19920;-69
2024/01/23 15:19:31;;;;;;;;;;;;;;;;;;5075990;28;20087;-69
2024/01/23 15:21:56;;;;;;;;;;;;;;;;;;5079454;28;19959;-69
2024/01/23 15:24:21;;;;;;;;;;;;;;;;;;5073234;28;19920;-69
2024/01/23 15:26:47;;;;;;;;;;;;;;;;;;5071058;28;19924;-68
2024/01/23 15:29:12;;;;;;;;;;;;;;;;;;5078112;28;19938;-69
2024/01/23 15:31:37;;;;;;;;;;;;;;;;;;5068623;28;19921;-69
2024/01/23 15:34:02;;;;;;;;;;;;;;;;;;5052998;28;19932;-69
2024/01/23 15:36:27;;;;;;;;;;;;;;;;;;5069412;28;19924;-68
2024/01/23 15:38:52;;;;;;;;;;;;;;;;;;5070508;28;20472;-68
2024/01/23 15:41:17;;;;;;;;;;;;;;;;;;5072762;28;19920;-68
2024/01/23 15:43:42;;;;;;;;;;;;;;;;;;5071918;28;19924;-67
2024/01/23 15:46:07;;;;;;;;;;;;;;;;;;5077351;28;20365;-68
2024/01/23 15:48:32;;;;;;;;;;;;;;;;;;5088701;28;19916;-68
2024/01/23 15:50:58;;;;;;;;;;;;;;;;;;5076776;28;19954;-68
2024/01/23 15:53:23;;;;;;;;;;;;;;;;;;5081154;28;20296;-68
2024/01/23 15:55:48;;;;;;;;;;;;;;;;;;5070650;28;19974;-68
2024/01/23 15:58:15;;;;;;;;;;;;;;;;;;5069697;28;19920;-68
2024/01/23 16:00:40;;;;;;;;;;;;;;;;;;5075609;28;19924;-68
2024/01/23 16:03:05;;;;;;;;;;;;;;;;;;5067642;28;19916;-68
2024/01/23 16:05:30;;;;;;;;;;;;;;;;;;5081099;28;20011;-68
2024/01/23 16:07:55;;;;;;;;;;;;;;;;;;5085937;28;19927;-68
2024/01/23 16:10:20;;;;;;;;;;;;;;;;;;5077992;28;20029;-68
2024/01/23 16:12:46;;;;;;;;;;;;;;;;;;5074697;28;20333;-68
2024/01/23 16:15:11;;;;;;;;;;;;;;;;;;5087628;28;19920;-67
2024/01/23 16:17:36;;;;;;;;;;;;;;;;;;5069831;28;19969;-67
2024/01/23 16:20:01;;;;;;;;;;;;;;;;;;5070837;28;19931;-67
2024/01/23 16:22:27;;;;;;;;;;;;;;;;;;5069724;28;20047;-68
2024/01/23 16:24:52;;;;;;;;;;;;;;;;;;5075223;28;19973;-68
2024/01/23 16:27:18;;;;;;;;;;;;;;;;;;5082547;28;19917;-67
2024/01/23 16:29:43;;;;;;;;;;;;;;;;;;5073769;28;20284;-68
2024/01/23 16:32:08;;;;;;;;;;;;;;;;;;5074742;28;20438;-68